Time;durP1;ratioP1;P1;durP2;ratioP2;P2;SDS_P1;SDS_P2;PMS_P1;PMS_P2;Temp;Humidity;BMP_temperature;BMP_pressure;BME280_temperature;BME280_humidity;BME280_pressure;Samples;Min_cycle;Max_cycle;Signal;HPM_P1;HPM_P2
2022/09/03 00:02:02;;;;;;;1.38;0.50;;;16.60;65.60;;;;;;5078864;28;20050;-67
2022/09/03 00:04:39;;;;;;;3.10;0.45;;;16.60;65.60;;;;;;5068472;28;20048;-67
2022/09/03 00:07:36;;;;;;;2.28;0.40;;;16.60;65.90;;;;;;5067090;28;20097;-67
2022/09/03 00:10:11;;;;;;;1.30;0.30;;;16.50;66.00;;;;;;5077033;28;20052;-66
2022/09/03 00:12:42;;;;;;;1.33;0.30;;;16.40;66.10;;;;;;5063785;28;20079;-67
2022/09/03 00:15:19;;;;;;;2.63;0.38;;;16.40;66.40;;;;;;5063200;28;20048;-67
2022/09/03 00:17:50;;;;;;;5.13;0.70;;;16.30;66.40;;;;;;5078176;28;20050;-66
2022/09/03 00:20:23;;;;;;;4.03;0.60;;;16.30;66.70;;;;;;5085192;28;20140;-66
2022/09/03 00:22:54;;;;;;;2.88;0.68;;;16.20;66.80;;;;;;5062848;28;20059;-66
2022/09/03 00:25:33;;;;;;;1.90;0.40;;;16.20;67.60;;;;;;5065128;28;20040;-66
2022/09/03 00:28:04;;;;;;;5.32;0.60;;;16.20;66.90;;;;;;5060456;28;20384;-66
2022/09/03 00:30:32;;;;;;;2.42;0.40;;;16.20;66.90;;;;;;5060608;28;20120;-65
2022/09/03 00:33:08;;;;;;;3.70;0.50;;;16.20;67.10;;;;;;5075394;28;20071;-66
2022/09/03 00:35:52;;;;;;;1.30;0.40;;;16.10;67.10;;;;;;5082279;28;20076;-66
2022/09/03 00:38:18;;;;;;;3.92;0.70;;;16.10;67.50;;;;;;5057915;28;20075;-66
2022/09/03 00:41:21;;;;;;;2.55;0.40;;;16.10;67.50;;;;;;5085020;28;20132;-66
2022/09/03 00:43:56;;;;;;;2.17;0.40;;;16.00;67.50;;;;;;5058994;28;20092;-67
2022/09/03 00:46:35;;;;;;;2.45;0.30;;;16.00;67.60;;;;;;5082466;28;20032;-66
2022/09/03 00:49:25;;;;;;;6.03;0.65;;;16.00;67.80;;;;;;5059242;28;20044;-67
2022/09/03 00:52:20;;;;;;;1.75;0.52;;;16.00;67.90;;;;;;5070793;28;20047;-66
2022/09/03 00:54:57;;;;;;;3.40;0.50;;;15.90;68.50;;;;;;5070242;28;20183;-67
2022/09/03 00:57:43;;;;;;;3.35;0.30;;;15.90;68.30;;;;;;5061956;28;20048;-67
2022/09/03 01:00:16;;;;;;;1.27;0.40;;;15.90;68.30;;;;;;5059212;28;20396;-69
2022/09/03 01:02:45;;;;;;;3.05;0.35;;;15.80;68.20;;;;;;5066935;28;20157;-69
2022/09/03 01:05:36;;;;;;;4.20;0.45;;;15.80;68.50;;;;;;5057492;28;20435;-69
2022/09/03 01:08:07;;;;;;;2.90;0.40;;;15.80;68.60;;;;;;5067251;28;20071;-69
2022/09/03 01:10:40;;;;;;;6.35;0.40;;;15.70;68.70;;;;;;5081273;28;20086;-69
2022/09/03 01:13:48;;;;;;;2.95;0.30;;;15.70;68.90;;;;;;5068715;28;20043;-69
2022/09/03 01:16:23;;;;;;;2.10;0.35;;;15.70;68.90;;;;;;5061434;28;20044;-69
2022/09/03 01:19:07;;;;;;;1.23;0.35;;;15.70;69.00;;;;;;5072007;28;20044;-69
2022/09/03 01:22:18;;;;;;;2.22;0.40;;;15.70;69.20;;;;;;5058928;28;20032;-69
2022/09/03 01:24:58;;;;;;;1.35;0.30;;;15.70;69.20;;;;;;5076974;28;20056;-68
2022/09/03 01:27:49;;;;;;;2.33;0.82;;;15.60;69.20;;;;;;5065573;28;20040;-69
2022/09/03 01:30:19;;;;;;;2.90;0.50;;;15.60;69.30;;;;;;5078003;28;20422;-67
2022/09/03 01:32:53;;;;;;;2.67;0.40;;;15.60;69.50;;;;;;5060397;28;20113;-67
2022/09/03 01:35:23;;;;;;;1.25;0.32;;;15.60;69.60;;;;;;5081272;28;20036;-67
2022/09/03 01:38:13;;;;;;;3.55;0.30;;;15.60;69.70;;;;;;5059326;28;20060;-67
2022/09/03 01:42:12;;;;;;;2.70;0.40;;;15.60;69.70;;;;;;5076747;28;20040;-67
2022/09/03 01:43:56;;;;;;;2.00;0.38;;;15.60;69.90;;;;;;5059300;28;20044;-66
2022/09/03 01:46:37;;;;;;;2.67;0.43;;;15.50;70.20;;;;;;5075247;28;20055;-67
2022/09/03 01:49:29;;;;;;;0.93;0.30;;;15.50;70.20;;;;;;5075294;28;20036;-68
2022/09/03 01:52:14;;;;;;;3.55;0.30;;;15.50;71.10;;;;;;5058319;28;20086;-68
2022/09/03 01:55:00;;;;;;;2.45;0.30;;;15.50;70.40;;;;;;5058640;28;20052;-69
2022/09/03 01:57:38;;;;;;;2.05;0.30;;;15.50;70.40;;;;;;5060532;28;20044;-68
2022/09/03 02:00:10;;;;;;;2.00;0.43;;;15.50;70.40;;;;;;5060105;28;20041;-68
2022/09/03 02:02:36;;;;;;;3.03;0.40;;;15.50;70.40;;;;;;5074788;28;20128;-69
2022/09/03 02:05:07;;;;;;;0.95;0.40;;;15.50;70.60;;;;;;5076106;28;20664;-68
2022/09/03 02:07:37;;;;;;;1.70;0.47;;;15.50;70.70;;;;;;5081513;28;20042;-69
2022/09/03 02:10:07;;;;;;;1.52;0.40;;;15.60;70.90;;;;;;5079091;28;20040;-69
2022/09/03 02:12:36;;;;;;;1.77;0.32;;;15.50;70.90;;;;;;5074486;28;21563;-69
2022/09/03 02:15:08;;;;;;;1.35;0.40;;;15.60;70.90;;;;;;5076481;28;20442;-69
2022/09/03 02:17:35;;;;;;;2.47;0.30;;;15.60;70.80;;;;;;5078710;28;20068;-69
2022/09/03 02:20:07;;;;;;;1.95;0.20;;;15.60;70.80;;;;;;5042789;28;20052;-69
2022/09/03 02:22:33;;;;;;;2.13;0.40;;;15.60;70.90;;;;;;5077658;28;20085;-68
2022/09/03 02:24:59;;;;;;;5.82;0.50;;;15.60;71.00;;;;;;5084326;28;20036;-68
2022/09/03 02:27:25;;;;;;;0.82;0.20;;;15.60;71.10;;;;;;5058551;28;20235;-69
2022/09/03 02:29:52;;;;;;;0.90;0.30;;;15.60;71.10;;;;;;5080127;28;20039;-69
2022/09/03 02:32:17;;;;;;;1.55;0.30;;;15.70;71.20;;;;;;5071552;28;20044;-69
2022/09/03 02:34:43;;;;;;;3.75;0.45;;;15.70;71.20;;;;;;5044403;28;20052;-69
2022/09/03 02:37:17;;;;;;;1.88;0.35;;;15.70;71.00;;;;;;5076149;28;20047;-69
2022/09/03 02:39:43;;;;;;;0.90;0.30;;;15.70;71.10;;;;;;5065267;28;20073;-69
2022/09/03 02:42:11;;;;;;;3.28;0.30;;;15.80;71.10;;;;;;5059768;28;20048;-69
2022/09/03 02:45:06;;;;;;;0.68;0.20;;;15.80;71.00;;;;;;5078492;28;20476;-69
2022/09/03 02:47:34;;;;;;;1.50;0.40;;;15.80;70.80;;;;;;5040298;28;20265;-69
2022/09/03 02:50:00;;;;;;;3.75;0.43;;;15.90;70.80;;;;;;5064815;28;20218;-69
2022/09/03 02:52:25;;;;;;;2.63;0.32;;;15.90;70.70;;;;;;5058325;28;20380;-69
2022/09/03 02:54:51;;;;;;;1.60;0.30;;;15.90;70.60;;;;;;5079373;28;20508;-69
2022/09/03 02:57:17;;;;;;;1.88;0.47;;;16.00;70.60;;;;;;5056954;28;20193;-69
2022/09/03 02:59:44;;;;;;;2.35;0.40;;;16.00;70.60;;;;;;5074803;28;20412;-69
2022/09/03 03:02:11;;;;;;;1.58;0.20;;;16.00;70.60;;;;;;5059893;28;20052;-68
2022/09/03 03:04:37;;;;;;;3.28;0.30;;;16.00;70.40;;;;;;5076660;28;20040;-68
2022/09/03 03:07:04;;;;;;;1.98;0.40;;;16.10;70.30;;;;;;5085073;28;20050;-69
2022/09/03 03:09:29;;;;;;;1.00;0.40;;;16.10;70.40;;;;;;5064375;28;20462;-69
2022/09/03 03:11:55;;;;;;;1.23;0.25;;;16.10;70.10;;;;;;5064899;28;20044;-68
2022/09/03 03:14:21;;;;;;;2.72;0.40;;;16.10;69.90;;;;;;5065089;28;20055;-68
2022/09/03 03:16:48;;;;;;;0.98;0.40;;;16.20;69.90;;;;;;5069478;28;20086;-69
2022/09/03 03:19:14;;;;;;;2.25;0.20;;;16.20;69.80;;;;;;5066182;28;20040;-69
2022/09/03 03:21:39;;;;;;;0.77;0.28;;;16.10;69.70;;;;;;5080482;28;20098;-69
2022/09/03 03:24:05;;;;;;;2.25;0.38;;;16.10;69.90;;;;;;5078439;28;20462;-69
2022/09/03 03:26:31;;;;;;;2.35;0.43;;;16.20;69.90;;;;;;5081629;28;20434;-69
2022/09/03 03:28:59;;;;;;;1.50;0.30;;;16.20;69.90;;;;;;5065518;28;20060;-69
2022/09/03 03:31:26;;;;;;;2.35;0.30;;;16.10;69.80;;;;;;5088560;28;20077;-69
2022/09/03 03:33:53;;;;;;;1.60;0.30;;;16.10;69.90;;;;;;5069089;28;20052;-69
2022/09/03 03:36:20;;;;;;;3.47;0.40;;;16.10;69.90;;;;;;5069277;28;20393;-69
2022/09/03 03:38:46;;;;;;;1.83;0.38;;;16.10;70.00;;;;;;5070395;28;20119;-68
2022/09/03 03:41:18;;;;;;;3.50;0.30;;;16.10;70.00;;;;;;5067028;28;20048;-69
2022/09/03 03:43:44;;;;;;;2.30;0.40;;;16.10;70.10;;;;;;5088623;28;20036;-67
2022/09/03 03:46:10;;;;;;;1.65;0.30;;;16.00;70.20;;;;;;5064829;28;20108;-67
2022/09/03 03:48:37;;;;;;;3.50;0.30;;;16.00;70.30;;;;;;5066348;28;20186;-68
2022/09/03 03:51:05;;;;;;;2.38;0.80;;;16.00;70.50;;;;;;5066090;28;20127;-67
2022/09/03 03:53:32;;;;;;;2.30;0.20;;;16.00;70.60;;;;;;5069562;28;20076;-68
2022/09/03 03:56:00;;;;;;;1.27;0.30;;;15.90;70.60;;;;;;5086803;28;20055;-68
2022/09/03 03:58:27;;;;;;;0.50;0.20;;;15.90;70.60;;;;;;5088221;28;20113;-67
2022/09/03 04:00:53;;;;;;;3.25;0.20;;;15.90;70.60;;;;;;5086847;28;20112;-67
2022/09/03 04:03:19;;;;;;;1.52;0.20;;;15.90;70.60;;;;;;5065847;28;20113;-68
2022/09/03 04:05:59;;;;;;;2.13;0.30;;;15.90;70.80;;;;;;5067882;28;20052;-67
2022/09/03 04:08:25;;;;;;;3.92;0.43;;;15.90;70.70;;;;;;5083576;28;20037;-68
2022/09/03 04:10:51;;;;;;;1.80;0.30;;;15.80;71.20;;;;;;5071160;28;20052;-67
2022/09/03 04:13:17;;;;;;;4.93;0.32;;;15.80;71.30;;;;;;5070146;28;20189;-67
2022/09/03 04:15:43;;;;;;;2.45;0.40;;;15.70;71.40;;;;;;5066107;28;20032;-67
2022/09/03 04:18:09;;;;;;;1.38;0.30;;;15.70;71.50;;;;;;5086302;28;20040;-68
2022/09/03 04:20:35;;;;;;;1.08;0.40;;;15.70;71.80;;;;;;5069834;28;20045;-68
2022/09/03 04:23:01;;;;;;;1.38;0.30;;;15.60;72.00;;;;;;5067672;28;20044;-68
2022/09/03 04:25:27;;;;;;;1.35;0.32;;;15.60;72.20;;;;;;5070165;28;20062;-68
2022/09/03 04:27:52;;;;;;;1.02;0.30;;;15.50;72.40;;;;;;5061604;28;20408;-68
2022/09/03 04:30:19;;;;;;;3.10;0.45;;;15.50;72.70;;;;;;5071631;28;20047;-68
2022/09/03 04:32:54;;;;;;;5.05;0.20;;;15.40;72.80;;;;;;5080812;28;20070;-68
2022/09/03 04:35:22;;;;;;;1.83;0.40;;;15.40;72.90;;;;;;5088636;28;20114;-68
2022/09/03 04:37:48;;;;;;;1.77;0.35;;;15.30;73.10;;;;;;5065086;28;20104;-68
2022/09/03 04:40:14;;;;;;;0.75;0.22;;;15.30;73.60;;;;;;5089099;28;20118;-68
2022/09/03 04:42:39;;;;;;;2.20;0.40;;;15.30;73.80;;;;;;5049939;28;20037;-68
2022/09/03 04:45:06;;;;;;;2.33;0.40;;;15.20;74.20;;;;;;5088417;28;20093;-68
2022/09/03 04:47:31;;;;;;;2.30;0.32;;;15.20;74.30;;;;;;5065999;28;20044;-68
2022/09/03 04:49:57;;;;;;;3.55;0.30;;;15.10;74.50;;;;;;5087237;28;20047;-68
2022/09/03 04:52:24;;;;;;;2.97;0.40;;;15.10;74.80;;;;;;5061106;28;20044;-68
2022/09/03 04:54:50;;;;;;;1.17;0.40;;;15.00;75.00;;;;;;5066566;28;20094;-68
2022/09/03 04:57:15;;;;;;;0.77;0.40;;;15.00;75.20;;;;;;5067040;28;20040;-68
2022/09/03 04:59:41;;;;;;;1.33;0.57;;;14.90;75.50;;;;;;5068346;28;20377;-69
2022/09/03 05:02:08;;;;;;;1.65;0.60;;;14.90;75.80;;;;;;5084929;28;20123;-70
2022/09/03 05:04:34;;;;;;;2.33;0.60;;;14.90;76.00;;;;;;5086667;28;20032;-67
2022/09/03 05:07:00;;;;;;;1.10;0.30;;;14.80;76.40;;;;;;5066816;28;20454;-67
2022/09/03 05:09:25;;;;;;;2.03;0.40;;;14.80;76.80;;;;;;5067042;28;20031;-67
2022/09/03 05:11:51;;;;;;;6.15;0.65;;;14.80;77.20;;;;;;5066399;28;20048;-67
2022/09/03 05:14:17;;;;;;;2.83;0.50;;;14.80;77.40;;;;;;5087206;28;20123;-67
2022/09/03 05:16:42;;;;;;;1.75;0.60;;;14.80;77.80;;;;;;5064733;28;20036;-66
2022/09/03 05:19:09;;;;;;;2.90;0.57;;;14.80;78.00;;;;;;5054017;28;20044;-67
2022/09/03 05:21:35;;;;;;;1.70;0.50;;;14.80;78.20;;;;;;5081103;28;20047;-67
2022/09/03 05:24:02;;;;;;;1.52;0.50;;;14.80;78.40;;;;;;5079176;28;20115;-67
2022/09/03 05:26:36;;;;;;;2.00;0.47;;;14.80;78.70;;;;;;5065139;28;20075;-67
2022/09/03 05:29:06;;;;;;;2.55;0.30;;;14.80;78.60;;;;;;5060009;28;20090;-67
2022/09/03 05:31:33;;;;;;;5.18;0.50;;;14.80;79.00;;;;;;5081033;28;20037;-67
2022/09/03 05:34:02;;;;;;;2.90;0.50;;;14.80;79.30;;;;;;5076165;28;20074;-67
2022/09/03 05:36:30;;;;;;;2.58;0.60;;;14.80;79.60;;;;;;5082692;28;20033;-67
2022/09/03 05:38:57;;;;;;;1.77;0.60;;;14.80;79.60;;;;;;5047534;28;20047;-67
2022/09/03 05:41:24;;;;;;;3.88;0.77;;;14.80;79.70;;;;;;5065972;28;20041;-67
2022/09/03 05:43:53;;;;;;;3.20;0.50;;;14.80;80.10;;;;;;5073862;28;20329;-67
2022/09/03 05:46:20;;;;;;;2.20;0.60;;;14.90;80.10;;;;;;5052910;28;20433;-68
2022/09/03 05:48:46;;;;;;;3.08;0.60;;;14.90;80.40;;;;;;5085273;28;20074;-68
2022/09/03 05:51:17;;;;;;;6.18;0.75;;;14.90;80.80;;;;;;5067054;28;20040;-67
2022/09/03 05:53:45;;;;;;;4.97;0.70;;;14.90;81.00;;;;;;5065526;28;20450;-67
2022/09/03 05:56:19;;;;;;;2.08;0.57;;;14.90;81.00;;;;;;5079885;28;20055;-66
2022/09/03 05:58:49;;;;;;;4.85;0.60;;;15.00;81.90;;;;;;5079225;28;20511;-68
2022/09/03 06:01:30;;;;;;;3.15;0.70;;;15.00;81.50;;;;;;5080524;28;20055;-67
2022/09/03 06:04:09;;;;;;;3.35;0.65;;;15.10;81.50;;;;;;5077162;28;20051;-68
2022/09/03 06:06:40;;;;;;;2.65;0.60;;;15.10;81.60;;;;;;5042312;28;20086;-67
2022/09/03 06:09:09;;;;;;;1.00;0.40;;;15.20;81.40;;;;;;5079114;28;20052;-68
2022/09/03 06:11:36;;;;;;;1.98;0.60;;;15.20;81.50;;;;;;5060014;28;20060;-69
2022/09/03 06:14:04;;;;;;;1.13;0.47;;;15.30;81.70;;;;;;5060989;28;20052;-69
2022/09/03 06:16:32;;;;;;;1.45;0.60;;;15.20;81.70;;;;;;5067367;28;20036;-68
2022/09/03 06:18:58;;;;;;;3.08;0.70;;;15.30;82.10;;;;;;5081232;28;20101;-69
2022/09/03 06:21:24;;;;;;;1.33;0.50;;;15.50;82.10;;;;;;5069630;28;20048;-69
2022/09/03 06:23:52;;;;;;;2.30;0.60;;;15.60;82.10;;;;;;5064082;28;20074;-68
2022/09/03 06:26:19;;;;;;;2.25;0.60;;;15.70;81.30;;;;;;5068810;28;20049;-68
2022/09/03 06:28:46;;;;;;;2.10;0.82;;;15.80;81.30;;;;;;5079502;28;20040;-68
2022/09/03 06:31:14;;;;;;;3.15;1.00;;;15.90;80.90;;;;;;5085182;28;20108;-68
2022/09/03 06:33:41;;;;;;;5.75;0.98;;;15.90;80.60;;;;;;5050902;28;20113;-68
2022/09/03 06:36:09;;;;;;;1.58;0.60;;;16.00;81.40;;;;;;5083718;28;20072;-68
2022/09/03 06:38:36;;;;;;;1.30;0.70;;;16.00;81.30;;;;;;5082411;28;20037;-68
2022/09/03 06:41:13;;;;;;;1.98;0.68;;;16.10;80.60;;;;;;5084065;28;20529;-68
2022/09/03 06:43:41;;;;;;;1.80;0.75;;;16.10;80.20;;;;;;5071043;28;20039;-68
2022/09/03 06:46:18;;;;;;;3.83;0.68;;;16.10;80.60;;;;;;5070811;28;20501;-68
2022/09/03 06:48:45;;;;;;;2.20;0.70;;;16.10;80.20;;;;;;5091535;28;20117;-68
2022/09/03 06:51:22;;;;;;;3.40;0.80;;;16.20;80.90;;;;;;5086914;28;20040;-68
2022/09/03 06:53:50;;;;;;;3.63;0.52;;;16.30;81.00;;;;;;5084389;28;20059;-68
2022/09/03 06:56:25;;;;;;;3.88;0.75;;;16.40;80.80;;;;;;5087100;28;20044;-68
2022/09/03 06:58:52;;;;;;;3.65;0.63;;;16.40;80.60;;;;;;5087251;28;20040;-69
2022/09/03 07:01:21;;;;;;;1.98;0.82;;;16.50;81.30;;;;;;5072338;28;20048;-68
2022/09/03 07:03:51;;;;;;;2.33;0.80;;;16.60;80.40;;;;;;5087707;28;20079;-69
2022/09/03 07:06:18;;;;;;;1.88;0.65;;;16.70;80.00;;;;;;5071062;28;20040;-69
2022/09/03 07:08:45;;;;;;;3.38;0.65;;;16.80;79.60;;;;;;5070310;28;20401;-69
2022/09/03 07:11:13;;;;;;;3.65;0.50;;;16.90;79.20;;;;;;5085663;28;20486;-69
2022/09/03 07:13:44;;;;;;;2.35;0.60;;;17.00;79.30;;;;;;5064490;28;20414;-69
2022/09/03 07:16:12;;;;;;;3.10;0.45;;;17.20;79.10;;;;;;5065979;28;20116;-68
2022/09/03 07:18:39;;;;;;;2.33;0.50;;;17.30;79.10;;;;;;5073711;28;20462;-70
2022/09/03 07:21:10;;;;;;;4.13;0.52;;;17.40;78.10;;;;;;5086466;28;20040;-69
2022/09/03 07:23:37;;;;;;;2.88;0.52;;;17.60;77.30;;;;;;5086795;28;20034;-69
2022/09/03 07:26:12;;;;;;;3.25;0.60;;;17.60;77.50;;;;;;5088904;28;20428;-69
2022/09/03 07:28:39;;;;;;;3.33;0.73;;;17.80;76.40;;;;;;5067077;28;20040;-69
2022/09/03 07:31:06;;;;;;;2.70;0.80;;;17.90;75.50;;;;;;5087523;28;20082;-70
2022/09/03 07:33:33;;;;;;;3.47;0.85;;;18.00;75.40;;;;;;5056008;28;20495;-70
2022/09/03 07:36:13;;;;;;;2.47;0.80;;;18.10;75.40;;;;;;5089939;28;20044;-70
2022/09/03 07:38:39;;;;;;;3.35;0.75;;;18.30;74.50;;;;;;5071047;28;20050;-70
2022/09/03 07:41:07;;;;;;;3.22;0.60;;;18.40;73.40;;;;;;5088243;28;20119;-70
2022/09/03 07:43:38;;;;;;;2.78;0.95;;;18.50;72.80;;;;;;5076947;28;20056;-70
2022/09/03 07:46:05;;;;;;;3.25;0.60;;;18.60;72.70;;;;;;5067607;28;20037;-70
2022/09/03 07:48:31;;;;;;;1.23;0.55;;;18.60;72.30;;;;;;5089150;28;20044;-70
2022/09/03 07:51:00;;;;;;;2.13;0.60;;;18.80;71.90;;;;;;5072127;28;20083;-70
2022/09/03 07:53:27;;;;;;;2.80;0.70;;;18.90;72.50;;;;;;5082443;28;20048;-70
2022/09/03 07:55:53;;;;;;;1.67;0.57;;;19.10;71.90;;;;;;5067543;28;20048;-70
2022/09/03 07:58:23;;;;;;;2.20;0.75;;;19.40;71.40;;;;;;5072078;28;20321;-70
2022/09/03 08:00:49;;;;;;;3.13;0.70;;;19.50;69.70;;;;;;5081099;28;20116;-70
2022/09/03 08:03:15;;;;;;;3.90;0.65;;;19.70;69.40;;;;;;5050913;28;20159;-70
2022/09/03 08:05:41;;;;;;;1.40;0.68;;;20.10;70.00;;;;;;5072785;28;20399;-71
2022/09/03 08:08:07;;;;;;;2.70;0.65;;;20.90;68.30;;;;;;5077356;28;20033;-72
2022/09/03 08:11:09;;;;;;;2.05;0.43;;;21.60;65.80;;;;;;5069618;28;20407;-72
2022/09/03 08:13:43;;;;;;;2.58;0.50;;;22.40;63.20;;;;;;5090508;28;20055;-71
2022/09/03 08:16:14;;;;;;;5.18;0.65;;;23.00;61.50;;;;;;5069125;28;20476;-71
2022/09/03 08:18:40;;;;;;;4.03;0.98;;;23.50;61.20;;;;;;5066370;28;20047;-70
2022/09/03 08:21:09;;;;;;;2.97;0.80;;;24.20;59.70;;;;;;5085904;28;20044;-70
2022/09/03 08:23:39;;;;;;;1.42;0.60;;;24.40;57.30;;;;;;5069945;28;20408;-70
2022/09/03 08:26:06;;;;;;;7.53;0.80;;;24.60;55.30;;;;;;5086906;28;20035;-71
2022/09/03 08:28:33;;;;;;;1.55;0.60;;;24.70;55.50;;;;;;5065219;28;20043;-71
2022/09/03 08:31:10;;;;;;;2.08;0.80;;;24.90;54.60;;;;;;5071388;28;20043;-70
2022/09/03 08:33:37;;;;;;;2.72;0.70;;;24.90;53.30;;;;;;5077989;28;20041;-71
2022/09/03 08:36:11;;;;;;;3.63;0.80;;;24.90;54.00;;;;;;5086070;28;20043;-70
2022/09/03 08:38:37;;;;;;;4.10;0.70;;;25.10;54.00;;;;;;5070880;28;20036;-71
2022/09/03 08:41:23;;;;;;;6.43;0.88;;;25.30;53.60;;;;;;5068408;28;20069;-71
2022/09/03 08:43:55;;;;;;;2.65;0.50;;;25.70;53.90;;;;;;5086184;28;20041;-71
2022/09/03 08:46:25;;;;;;;2.88;0.60;;;25.90;52.20;;;;;;5088997;28;20043;-71
2022/09/03 08:48:53;;;;;;;4.93;0.60;;;26.00;51.90;;;;;;5091352;28;20041;-70
2022/09/03 08:51:22;;;;;;;3.35;0.70;;;26.10;51.60;;;;;;5074271;28;20044;-70
2022/09/03 08:53:54;;;;;;;3.03;0.60;;;26.20;51.20;;;;;;5086070;28;20067;-71
2022/09/03 08:56:31;;;;;;;2.78;0.70;;;26.20;50.80;;;;;;5083357;28;20047;-71
2022/09/03 08:59:00;;;;;;;2.17;0.60;;;26.30;49.90;;;;;;5075277;28;20051;-70
2022/09/03 09:01:42;;;;;;;3.35;0.50;;;26.20;49.90;;;;;;5088731;28;20054;-72
2022/09/03 09:04:17;;;;;;;2.33;0.50;;;26.10;49.20;;;;;;5087978;28;20048;-71
2022/09/03 09:07:04;;;;;;;2.75;0.43;;;26.10;50.00;;;;;;5088389;28;20054;-72
2022/09/03 09:09:37;;;;;;;1.90;0.40;;;26.30;49.20;;;;;;5086742;28;20072;-70
2022/09/03 09:12:20;;;;;;;3.60;0.60;;;26.60;50.30;;;;;;5070650;28;20047;-70
2022/09/03 09:15:07;;;;;;;3.33;0.80;;;26.90;48.40;;;;;;5054910;28;20044;-71
2022/09/03 09:18:09;;;;;;;1.98;0.52;;;26.90;48.60;;;;;;5085704;28;20097;-69
2022/09/03 09:20:48;;;;;;;1.42;0.57;;;27.20;47.80;;;;;;5078529;28;20516;-70
2022/09/03 09:23:26;;;;;;;2.03;0.60;;;27.10;48.50;;;;;;5061978;28;20036;-71
2022/09/03 09:25:54;;;;;;;3.55;0.82;;;27.20;49.30;;;;;;5082270;28;20036;-70
2022/09/03 09:28:22;;;;;;;4.18;0.47;;;27.50;48.30;;;;;;5085569;28;20138;-70
2022/09/03 09:30:51;;;;;;;1.45;0.47;;;27.60;48.20;;;;;;5083043;28;20453;-70
2022/09/03 09:33:17;;;;;;;2.17;0.50;;;27.70;47.90;;;;;;5072786;28;20043;-70
2022/09/03 09:35:44;;;;;;;3.92;0.70;;;27.60;46.90;;;;;;5082620;28;20044;-70
2022/09/03 09:38:11;;;;;;;1.45;0.50;;;27.60;47.50;;;;;;5086626;28;20495;-70
2022/09/03 09:40:40;;;;;;;3.28;0.80;;;27.60;47.50;;;;;;5061459;28;20041;-70
2022/09/03 09:43:14;;;;;;;1.30;0.50;;;27.70;46.90;;;;;;5064799;28;20025;-70
2022/09/03 09:45:52;;;;;;;2.97;0.60;;;27.80;47.20;;;;;;5081022;28;20546;-70
2022/09/03 09:48:30;;;;;;;2.33;0.50;;;27.90;46.10;;;;;;5081257;28;20044;-72
2022/09/03 09:51:17;;;;;;;2.20;0.55;;;28.00;45.80;;;;;;5083565;28;20063;-70
2022/09/03 09:53:43;;;;;;;2.20;0.40;;;27.70;46.00;;;;;;5086416;28;20097;-70
2022/09/03 09:56:24;;;;;;;2.67;0.40;;;27.60;46.40;;;;;;5085623;28;20569;-71
2022/09/03 09:59:00;;;;;;;3.65;0.60;;;27.60;46.40;;;;;;5087621;28;20072;-70
2022/09/03 10:01:29;;;;;;;1.13;0.50;;;27.70;47.00;;;;;;5066150;28;20498;-70
2022/09/03 10:04:09;;;;;;;5.22;0.60;;;27.80;46.40;;;;;;5082445;28;20105;-71
2022/09/03 10:06:55;;;;;;;7.63;0.70;;;28.00;46.00;;;;;;5069460;28;20044;-70
2022/09/03 10:09:32;;;;;;;3.17;0.40;;;28.00;45.60;;;;;;5087222;28;20040;-70
2022/09/03 10:12:19;;;;;;;3.03;0.40;;;28.20;44.70;;;;;;5067893;28;20063;-70
2022/09/03 10:15:02;;;;;;;3.50;0.50;;;28.20;44.30;;;;;;5086877;28;20047;-71
2022/09/03 10:17:58;;;;;;;2.60;0.40;;;28.10;46.60;;;;;;5080345;28;20056;-70
2022/09/03 10:20:43;;;;;;;3.33;0.55;;;28.20;45.20;;;;;;5077697;28;20043;-71
2022/09/03 10:23:27;;;;;;;2.78;0.30;;;28.20;44.10;;;;;;5077317;28;20111;-71
2022/09/03 10:25:55;;;;;;;2.22;0.52;;;28.20;45.70;;;;;;5079859;28;20051;-70
2022/09/03 10:28:25;;;;;;;2.80;1.05;;;28.20;44.20;;;;;;5079982;28;20048;-70
2022/09/03 10:31:14;;;;;;;3.10;0.40;;;28.20;44.30;;;;;;5079733;28;20060;-70
2022/09/03 10:33:49;;;;;;;4.05;0.65;;;28.20;44.20;;;;;;5078113;28;20080;-70
2022/09/03 10:36:27;;;;;;;2.15;0.40;;;28.10;44.60;;;;;;5100476;28;20047;-71
2022/09/03 10:39:40;;;;;;;3.38;0.50;;;28.10;44.20;;;;;;5077346;28;20045;-71
2022/09/03 10:42:20;;;;;;;0.93;0.40;;;28.20;44.00;;;;;;5099977;28;20036;-70
2022/09/03 10:45:03;;;;;;;1.20;0.40;;;28.40;44.30;;;;;;5098860;28;20044;-71
2022/09/03 10:47:38;;;;;;;1.13;0.30;;;28.70;42.70;;;;;;5092256;28;20066;-70
2022/09/03 10:50:22;;;;;;;2.47;0.40;;;28.50;42.60;;;;;;5094523;28;20132;-71
2022/09/03 10:52:56;;;;;;;2.80;0.40;;;28.50;42.50;;;;;;5080378;28;20048;-71
2022/09/03 10:55:35;;;;;;;3.10;0.35;;;28.30;42.80;;;;;;5079065;28;20136;-71
2022/09/03 10:58:26;;;;;;;1.50;0.30;;;28.30;43.00;;;;;;5093827;28;20137;-71
2022/09/03 11:00:56;;;;;;;3.53;0.50;;;28.40;41.40;;;;;;5098283;28;20087;-71
2022/09/03 11:03:41;;;;;;;2.47;0.68;;;28.40;42.40;;;;;;5071795;28;20052;-71
2022/09/03 11:06:19;;;;;;;2.72;0.40;;;28.30;41.50;;;;;;5093803;28;20048;-72
2022/09/03 11:09:20;;;;;;;1.55;0.50;;;28.10;42.10;;;;;;5097195;28;20047;-71
2022/09/03 11:12:04;;;;;;;2.05;0.40;;;28.10;41.30;;;;;;5086848;28;20521;-72
2022/09/03 11:14:37;;;;;;;4.68;0.65;;;28.00;43.40;;;;;;5089507;28;20040;-72
2022/09/03 11:17:19;;;;;;;2.03;0.50;;;28.00;42.40;;;;;;5090008;28;20036;-71
2022/09/03 11:19:50;;;;;;;2.90;0.40;;;28.20;41.70;;;;;;5088665;28;20043;-71
2022/09/03 11:22:17;;;;;;;1.95;0.40;;;28.40;41.00;;;;;;5059841;28;20055;-71
2022/09/03 11:24:48;;;;;;;1.75;0.40;;;28.50;41.80;;;;;;5062389;28;20488;-71
2022/09/03 11:27:25;;;;;;;3.72;0.40;;;28.80;41.20;;;;;;5085005;28;20048;-72
2022/09/03 11:29:57;;;;;;;1.85;0.40;;;28.70;40.40;;;;;;5097968;28;20075;-71
2022/09/03 11:32:42;;;;;;;5.70;0.60;;;28.70;41.40;;;;;;5074367;28;20044;-71
2022/09/03 11:35:25;;;;;;;2.78;0.30;;;28.80;40.90;;;;;;5092142;28;20557;-71
2022/09/03 11:38:02;;;;;;;2.67;0.65;;;28.80;40.80;;;;;;5095463;28;20092;-73
2022/09/03 11:40:37;;;;;;;2.35;0.40;;;29.00;40.50;;;;;;5090035;28;20041;-71
2022/09/03 11:43:26;;;;;;;2.17;0.40;;;29.10;40.90;;;;;;5091795;28;20572;-71
2022/09/03 11:46:10;;;;;;;2.42;0.45;;;29.60;40.40;;;;;;5098908;28;20032;-72
2022/09/03 11:48:42;;;;;;;3.83;0.32;;;29.90;37.70;;;;;;5093939;28;20041;-71
2022/09/03 11:51:29;;;;;;;1.92;0.30;;;29.60;38.80;;;;;;5100710;28;20119;-71
2022/09/03 11:53:58;;;;;;;3.08;0.40;;;29.70;39.40;;;;;;5094212;28;20127;-71
2022/09/03 11:56:24;;;;;;;1.23;0.38;;;29.90;39.30;;;;;;5075096;28;20484;-71
2022/09/03 11:59:01;;;;;;;1.83;0.30;;;29.90;38.60;;;;;;5093957;28;20093;-72
2022/09/03 12:01:27;;;;;;;2.70;0.40;;;29.90;38.30;;;;;;5078600;28;20044;-71
2022/09/03 12:04:02;;;;;;;1.80;0.40;;;30.20;37.90;;;;;;5072576;28;20040;-72
2022/09/03 12:06:56;;;;;;;2.45;0.30;;;30.30;37.70;;;;;;5073033;28;21067;-73
2022/09/03 12:10:07;;;;;;;2.83;0.57;;;30.50;36.90;;;;;;5076924;28;20136;-71
2022/09/03 12:12:45;;;;;;;4.72;0.95;;;30.50;37.40;;;;;;5045433;28;20108;-71
2022/09/03 12:15:36;;;;;;;3.03;0.50;;;30.80;37.40;;;;;;5096516;28;20100;-71
2022/09/03 12:18:19;;;;;;;3.20;0.40;;;31.00;36.60;;;;;;5088523;28;20040;-71
2022/09/03 12:21:00;;;;;;;4.38;0.50;;;31.00;36.50;;;;;;5093076;28;20041;-71
2022/09/03 12:23:38;;;;;;;1.40;0.45;;;30.70;36.40;;;;;;5098043;28;20028;-72
2022/09/03 12:26:07;;;;;;;1.20;0.40;;;30.60;36.70;;;;;;5089783;28;20110;-71
2022/09/03 12:28:37;;;;;;;3.28;0.50;;;30.80;36.50;;;;;;5079894;28;20499;-72
2022/09/03 12:31:22;;;;;;;4.38;0.40;;;31.00;36.20;;;;;;5085669;28;20056;-71
2022/09/03 12:34:15;;;;;;;2.67;0.50;;;31.10;36.30;;;;;;5077087;28;20051;-71
2022/09/03 12:36:46;;;;;;;3.50;0.40;;;31.30;37.20;;;;;;5094443;28;20090;-75
2022/09/03 12:39:25;;;;;;;4.00;0.45;;;31.40;36.30;;;;;;5099227;28;20402;-71
2022/09/03 12:42:09;;;;;;;3.08;0.40;;;31.30;35.80;;;;;;5075723;28;20045;-71
2022/09/03 12:44:35;;;;;;;1.33;0.40;;;31.30;36.70;;;;;;5075850;28;20036;-74
2022/09/03 12:47:02;;;;;;;4.47;0.30;;;31.30;35.90;;;;;;5069378;28;20044;-70
2022/09/03 12:49:40;;;;;;;3.58;0.50;;;31.20;35.70;;;;;;5076585;28;20067;-71
2022/09/03 12:52:29;;;;;;;2.58;0.35;;;31.00;36.00;;;;;;5086446;28;20367;-71
2022/09/03 12:55:05;;;;;;;2.15;0.40;;;30.90;36.60;;;;;;5092168;28;20048;-72
2022/09/03 12:57:42;;;;;;;3.42;0.50;;;31.00;36.10;;;;;;5076746;28;20055;-74
2022/09/03 13:00:12;;;;;;;5.18;0.30;;;30.90;36.00;;;;;;5078933;28;20066;-71
2022/09/03 13:02:41;;;;;;;4.20;0.40;;;30.80;36.00;;;;;;5088356;28;20039;-72
2022/09/03 13:05:14;;;;;;;4.03;0.50;;;30.90;35.60;;;;;;5081276;28;20632;-71
2022/09/03 13:07:45;;;;;;;;;;;30.80;35.70;;;;;;5077072;28;20040;-71
2022/09/03 13:10:31;;;;;;;2.40;0.40;;;30.80;36.30;;;;;;5096083;28;19915;-71
2022/09/03 13:12:59;;;;;;;2.80;0.40;;;30.60;36.00;;;;;;5092453;28;20117;-71
2022/09/03 13:15:25;;;;;;;2.38;0.40;;;30.50;36.50;;;;;;5094282;28;20071;-72
2022/09/03 13:18:07;;;;;;;2.67;0.38;;;30.50;36.70;;;;;;5067872;28;20404;-71
2022/09/03 13:20:42;;;;;;;2.70;0.35;;;30.60;36.40;;;;;;5089880;28;20548;-71